This is the latest recevied weather packets stored in our database for station/object YM2KRB-11. If no packets are shown the sender has not sent any weather packets the latest 1 day(s).
| Time | Temp. | Humidity | Pressure | Rain* | Wind** | Luminosity | Snow |
|---|---|---|---|---|---|---|---|
| 1778099126 | 13.33° C | 57% | 944.2 hPa | - | - | - | - |
| 1778097925 | 13.33° C | 57% | 944.2 hPa | - | - | - | - |
| 1778094322 | 14.44° C | 57% | 943.9 hPa | - | - | - | - |
| 1778089519 | 16.67° C | 53% | 943 hPa | - | - | - | - |
| 1778088318 | 17.22° C | 51% | 942.7 hPa | - | - | - | - |
| 1778084716 | 17.78° C | 49% | 942 hPa | - | - | - | - |
| 1778083515 | 18.89° C | 46% | 941.7 hPa | - | - | - | - |
| 1778082314 | 19.44° C | 43% | 941.5 hPa | - | - | - | - |
| 1778078712 | 23.33° C | 36% | 941.4 hPa | - | - | - | - |
| 1778072708 | 25.56° C | 27% | 941.2 hPa | - | - | - | - |
| 1778067905 | 26.67° C | 26% | 941.7 hPa | - | - | - | - |
| 1778064302 | 32.78° C | 24% | 942.1 hPa | - | - | - | - |
| 1778059499 | 28.89° C | 24% | 942.9 hPa | - | - | - | - |
| 1778058298 | 22.78° C | 30% | 942.9 hPa | - | - | - | - |
| 1778055896 | 20.56° C | 35% | 943 hPa | - | - | - | - |
| 1778053495 | 20.56° C | 38% | 943.1 hPa | - | - | - | - |
| 1778052294 | 20° C | 36% | 943 hPa | - | - | - | - |
| 1778051094 | 23.33° C | 35% | 943 hPa | - | - | - | - |
| 1778048692 | 21.67° C | 40% | 942.9 hPa | - | - | - | - |
| 1778047491 | 20° C | 45% | 943 hPa | - | - | - | - |
| 1778046290 | 18.89° C | 47% | 943.1 hPa | - | - | - | - |
| 1778045089 | 18.89° C | 48% | 943.1 hPa | - | - | - | - |
| 1778042688 | 13.89° C | 58% | 942.9 hPa | - | - | - | - |
| 1778041487 | 13.89° C | 60% | 942.8 hPa | - | - | - | - |
| 1778040286 | 13.33° C | 62% | 942.8 hPa | - | - | - | - |
* Rain since midnight (hover to see other rain measurements)
** Current wind speed in m/s (hover to see current wind gust speed)